sensor_id;sensor_type;location;lat;lon;timestamp;P1;durP1;ratioP1;P2;durP2;ratioP2
37905;SDS011;23739;51.448;6.674;2024-03-17T00:01:39;11.82;;;7.93;;
37905;SDS011;23739;51.448;6.674;2024-03-17T00:04:06;12.82;;;8.18;;
37905;SDS011;23739;51.448;6.674;2024-03-17T00:06:32;12.73;;;8.35;;
37905;SDS011;23739;51.448;6.674;2024-03-17T00:08:58;13.55;;;8.25;;
37905;SDS011;23739;51.448;6.674;2024-03-17T00:11:31;13.65;;;9.20;;
37905;SDS011;23739;51.448;6.674;2024-03-17T00:13:57;13.70;;;9.13;;
37905;SDS011;23739;51.448;6.674;2024-03-17T00:16:23;11.55;;;8.63;;
37905;SDS011;23739;51.448;6.674;2024-03-17T00:18:49;12.73;;;8.52;;
37905;SDS011;23739;51.448;6.674;2024-03-17T00:21:15;14.65;;;10.15;;
37905;SDS011;23739;51.448;6.674;2024-03-17T00:23:41;11.90;;;7.97;;
37905;SDS011;23739;51.448;6.674;2024-03-17T00:26:07;10.57;;;7.60;;
37905;SDS011;23739;51.448;6.674;2024-03-17T00:28:33;12.45;;;8.10;;
37905;SDS011;23739;51.448;6.674;2024-03-17T00:31:02;13.77;;;7.88;;
37905;SDS011;23739;51.448;6.674;2024-03-17T00:33:28;13.40;;;7.30;;
37905;SDS011;23739;51.448;6.674;2024-03-17T00:35:54;13.48;;;7.65;;
37905;SDS011;23739;51.448;6.674;2024-03-17T00:38:20;11.75;;;7.75;;
37905;SDS011;23739;51.448;6.674;2024-03-17T00:40:47;17.55;;;7.38;;
37905;SDS011;23739;51.448;6.674;2024-03-17T00:43:14;13.10;;;7.10;;
37905;SDS011;23739;51.448;6.674;2024-03-17T00:45:40;10.07;;;7.07;;
37905;SDS011;23739;51.448;6.674;2024-03-17T00:48:06;10.50;;;6.85;;
37905;SDS011;23739;51.448;6.674;2024-03-17T00:50:33;12.55;;;6.78;;
37905;SDS011;23739;51.448;6.674;2024-03-17T00:52:59;11.50;;;6.70;;
37905;SDS011;23739;51.448;6.674;2024-03-17T00:55:27;12.82;;;6.78;;
37905;SDS011;23739;51.448;6.674;2024-03-17T00:57:53;9.27;;;5.50;;
37905;SDS011;23739;51.448;6.674;2024-03-17T01:00:19;9.82;;;5.65;;
37905;SDS011;23739;51.448;6.674;2024-03-17T01:02:45;8.73;;;6.18;;
37905;SDS011;23739;51.448;6.674;2024-03-17T01:05:11;11.50;;;5.88;;
37905;SDS011;23739;51.448;6.674;2024-03-17T01:07:38;8.40;;;4.90;;
37905;SDS011;23739;51.448;6.674;2024-03-17T01:10:04;8.13;;;5.15;;
37905;SDS011;23739;51.448;6.674;2024-03-17T01:12:33;13.13;;;5.57;;
37905;SDS011;23739;51.448;6.674;2024-03-17T01:14:59;10.45;;;5.35;;
37905;SDS011;23739;51.448;6.674;2024-03-17T01:17:26;12.65;;;6.30;;
37905;SDS011;23739;51.448;6.674;2024-03-17T01:19:52;15.02;;;5.90;;
37905;SDS011;23739;51.448;6.674;2024-03-17T01:22:18;8.95;;;5.22;;
37905;SDS011;23739;51.448;6.674;2024-03-17T01:24:44;13.75;;;5.43;;
37905;SDS011;23739;51.448;6.674;2024-03-17T01:27:11;8.75;;;4.68;;
37905;SDS011;23739;51.448;6.674;2024-03-17T01:29:40;8.45;;;4.72;;
37905;SDS011;23739;51.448;6.674;2024-03-17T01:32:06;8.60;;;4.55;;
37905;SDS011;23739;51.448;6.674;2024-03-17T01:34:32;8.63;;;5.05;;
37905;SDS011;23739;51.448;6.674;2024-03-17T01:36:58;9.82;;;6.43;;
37905;SDS011;23739;51.448;6.674;2024-03-17T01:39:24;10.95;;;6.00;;
37905;SDS011;23739;51.448;6.674;2024-03-17T01:41:50;9.20;;;4.82;;
37905;SDS011;23739;51.448;6.674;2024-03-17T01:44:24;11.00;;;4.40;;
37905;SDS011;23739;51.448;6.674;2024-03-17T01:46:51;7.80;;;4.68;;
37905;SDS011;23739;51.448;6.674;2024-03-17T01:49:17;8.10;;;4.32;;
37905;SDS011;23739;51.448;6.674;2024-03-17T01:51:44;8.23;;;4.93;;
37905;SDS011;23739;51.448;6.674;2024-03-17T01:54:11;9.38;;;4.53;;
37905;SDS011;23739;51.448;6.674;2024-03-17T01:56:38;7.80;;;4.82;;
37905;SDS011;23739;51.448;6.674;2024-03-17T01:59:04;9.27;;;4.78;;
37905;SDS011;23739;51.448;6.674;2024-03-17T02:01:31;10.73;;;4.80;;
37905;SDS011;23739;51.448;6.674;2024-03-17T02:03:58;13.52;;;5.18;;
37905;SDS011;23739;51.448;6.674;2024-03-17T02:06:24;10.57;;;4.43;;
37905;SDS011;23739;51.448;6.674;2024-03-17T02:08:51;11.20;;;4.13;;
37905;SDS011;23739;51.448;6.674;2024-03-17T02:11:27;8.10;;;3.75;;
37905;SDS011;23739;51.448;6.674;2024-03-17T02:13:54;8.40;;;4.75;;
37905;SDS011;23739;51.448;6.674;2024-03-17T02:16:20;9.73;;;4.32;;
37905;SDS011;23739;51.448;6.674;2024-03-17T02:18:46;7.65;;;4.13;;
37905;SDS011;23739;51.448;6.674;2024-03-17T02:21:13;7.82;;;4.55;;
37905;SDS011;23739;51.448;6.674;2024-03-17T02:23:40;6.53;;;3.83;;
37905;SDS011;23739;51.448;6.674;2024-03-17T02:26:06;8.70;;;4.05;;
37905;SDS011;23739;51.448;6.674;2024-03-17T02:28:39;10.18;;;4.43;;
37905;SDS011;23739;51.448;6.674;2024-03-17T02:31:07;9.32;;;5.00;;
37905;SDS011;23739;51.448;6.674;2024-03-17T02:33:34;9.00;;;4.05;;
37905;SDS011;23739;51.448;6.674;2024-03-17T02:36:00;8.63;;;4.63;;
37905;SDS011;23739;51.448;6.674;2024-03-17T02:38:26;7.72;;;4.03;;
37905;SDS011;23739;51.448;6.674;2024-03-17T02:41:11;7.38;;;4.03;;
37905;SDS011;23739;51.448;6.674;2024-03-17T02:43:37;6.10;;;4.20;;
37905;SDS011;23739;51.448;6.674;2024-03-17T02:46:03;8.60;;;4.03;;
37905;SDS011;23739;51.448;6.674;2024-03-17T02:48:30;7.03;;;4.28;;
37905;SDS011;23739;51.448;6.674;2024-03-17T02:50:56;11.15;;;4.63;;
37905;SDS011;23739;51.448;6.674;2024-03-17T02:53:22;7.45;;;5.20;;
37905;SDS011;23739;51.448;6.674;2024-03-17T02:55:49;9.13;;;4.88;;
37905;SDS011;23739;51.448;6.674;2024-03-17T02:58:15;13.52;;;4.82;;
37905;SDS011;23739;51.448;6.674;2024-03-17T03:00:41;8.13;;;5.45;;
37905;SDS011;23739;51.448;6.674;2024-03-17T03:03:07;8.13;;;5.35;;
37905;SDS011;23739;51.448;6.674;2024-03-17T03:05:34;7.93;;;5.20;;
37905;SDS011;23739;51.448;6.674;2024-03-17T03:08:01;13.55;;;5.00;;
37905;SDS011;23739;51.448;6.674;2024-03-17T03:10:27;12.45;;;5.32;;
37905;SDS011;23739;51.448;6.674;2024-03-17T03:12:53;13.40;;;6.43;;
37905;SDS011;23739;51.448;6.674;2024-03-17T03:15:19;8.57;;;5.43;;
37905;SDS011;23739;51.448;6.674;2024-03-17T03:17:46;6.45;;;4.50;;
37905;SDS011;23739;51.448;6.674;2024-03-17T03:20:12;10.00;;;4.78;;
37905;SDS011;23739;51.448;6.674;2024-03-17T03:22:39;8.93;;;5.57;;
37905;SDS011;23739;51.448;6.674;2024-03-17T03:25:05;9.00;;;5.20;;
37905;SDS011;23739;51.448;6.674;2024-03-17T03:27:31;12.23;;;5.05;;
37905;SDS011;23739;51.448;6.674;2024-03-17T03:29:58;7.85;;;5.28;;
37905;SDS011;23739;51.448;6.674;2024-03-17T03:32:25;10.65;;;5.75;;
37905;SDS011;23739;51.448;6.674;2024-03-17T03:34:51;7.75;;;4.70;;
37905;SDS011;23739;51.448;6.674;2024-03-17T03:37:17;8.95;;;5.63;;
37905;SDS011;23739;51.448;6.674;2024-03-17T03:39:43;14.40;;;6.18;;
37905;SDS011;23739;51.448;6.674;2024-03-17T03:42:09;9.93;;;5.65;;
37905;SDS011;23739;51.448;6.674;2024-03-17T03:44:35;10.10;;;5.20;;
37905;SDS011;23739;51.448;6.674;2024-03-17T03:47:01;7.07;;;5.18;;
37905;SDS011;23739;51.448;6.674;2024-03-17T03:49:27;8.95;;;5.65;;
37905;SDS011;23739;51.448;6.674;2024-03-17T03:51:54;9.30;;;6.10;;
37905;SDS011;23739;51.448;6.674;2024-03-17T03:54:20;14.50;;;6.20;;
37905;SDS011;23739;51.448;6.674;2024-03-17T03:56:46;9.90;;;5.88;;
37905;SDS011;23739;51.448;6.674;2024-03-17T03:59:13;10.13;;;6.47;;
37905;SDS011;23739;51.448;6.674;2024-03-17T04:01:39;8.77;;;6.13;;
37905;SDS011;23739;51.448;6.674;2024-03-17T04:04:05;9.00;;;6.65;;
37905;SDS011;23739;51.448;6.674;2024-03-17T04:06:31;10.05;;;6.85;;
37905;SDS011;23739;51.448;6.674;2024-03-17T04:08:57;9.55;;;6.22;;
37905;SDS011;23739;51.448;6.674;2024-03-17T04:11:23;11.18;;;7.40;;
37905;SDS011;23739;51.448;6.674;2024-03-17T04:13:49;12.13;;;6.35;;
37905;SDS011;23739;51.448;6.674;2024-03-17T04:16:16;12.38;;;7.32;;
37905;SDS011;23739;51.448;6.674;2024-03-17T04:18:42;12.27;;;6.80;;
37905;SDS011;23739;51.448;6.674;2024-03-17T04:21:09;29.02;;;7.15;;
37905;SDS011;23739;51.448;6.674;2024-03-17T04:23:35;13.82;;;6.90;;
37905;SDS011;23739;51.448;6.674;2024-03-17T04:26:02;15.32;;;6.10;;
37905;SDS011;23739;51.448;6.674;2024-03-17T04:28:29;11.93;;;8.20;;
37905;SDS011;23739;51.448;6.674;2024-03-17T04:31:02;12.45;;;7.57;;
37905;SDS011;23739;51.448;6.674;2024-03-17T04:33:29;14.13;;;7.97;;
37905;SDS011;23739;51.448;6.674;2024-03-17T04:35:55;16.60;;;7.93;;
37905;SDS011;23739;51.448;6.674;2024-03-17T04:38:21;11.40;;;7.40;;
37905;SDS011;23739;51.448;6.674;2024-03-17T04:40:47;11.63;;;7.50;;
37905;SDS011;23739;51.448;6.674;2024-03-17T04:43:14;19.83;;;8.65;;
37905;SDS011;23739;51.448;6.674;2024-03-17T04:45:40;13.57;;;7.78;;
37905;SDS011;23739;51.448;6.674;2024-03-17T04:48:06;17.50;;;7.20;;
37905;SDS011;23739;51.448;6.674;2024-03-17T04:50:32;12.88;;;7.65;;
37905;SDS011;23739;51.448;6.674;2024-03-17T04:52:59;12.15;;;8.50;;
37905;SDS011;23739;51.448;6.674;2024-03-17T04:55:25;13.48;;;7.63;;
37905;SDS011;23739;51.448;6.674;2024-03-17T04:57:51;12.65;;;8.65;;
37905;SDS011;23739;51.448;6.674;2024-03-17T05:00:18;12.70;;;8.18;;
37905;SDS011;23739;51.448;6.674;2024-03-17T05:02:44;12.35;;;7.95;;
37905;SDS011;23739;51.448;6.674;2024-03-17T05:05:10;11.60;;;8.20;;
37905;SDS011;23739;51.448;6.674;2024-03-17T05:07:36;11.98;;;7.13;;
37905;SDS011;23739;51.448;6.674;2024-03-17T05:10:03;11.27;;;7.75;;
37905;SDS011;23739;51.448;6.674;2024-03-17T05:12:30;12.05;;;8.32;;
37905;SDS011;23739;51.448;6.674;2024-03-17T05:14:56;10.25;;;7.05;;
37905;SDS011;23739;51.448;6.674;2024-03-17T05:17:22;11.23;;;7.97;;
37905;SDS011;23739;51.448;6.674;2024-03-17T05:19:48;12.88;;;7.05;;
37905;SDS011;23739;51.448;6.674;2024-03-17T05:22:14;11.60;;;8.05;;
37905;SDS011;23739;51.448;6.674;2024-03-17T05:24:40;11.65;;;7.47;;
37905;SDS011;23739;51.448;6.674;2024-03-17T05:27:06;14.65;;;7.47;;
37905;SDS011;23739;51.448;6.674;2024-03-17T05:29:33;12.00;;;7.63;;
37905;SDS011;23739;51.448;6.674;2024-03-17T05:32:02;16.05;;;7.88;;
37905;SDS011;23739;51.448;6.674;2024-03-17T05:34:29;12.10;;;8.43;;
37905;SDS011;23739;51.448;6.674;2024-03-17T05:36:55;10.65;;;7.80;;
37905;SDS011;23739;51.448;6.674;2024-03-17T05:39:21;16.92;;;8.60;;
37905;SDS011;23739;51.448;6.674;2024-03-17T05:41:47;14.75;;;8.10;;
37905;SDS011;23739;51.448;6.674;2024-03-17T05:44:14;14.60;;;7.53;;
37905;SDS011;23739;51.448;6.674;2024-03-17T05:46:40;15.57;;;6.85;;
37905;SDS011;23739;51.448;6.674;2024-03-17T05:49:07;12.38;;;6.85;;
37905;SDS011;23739;51.448;6.674;2024-03-17T05:51:33;17.23;;;7.80;;
37905;SDS011;23739;51.448;6.674;2024-03-17T05:53:59;10.65;;;6.88;;
37905;SDS011;23739;51.448;6.674;2024-03-17T05:56:25;12.88;;;7.00;;
37905;SDS011;23739;51.448;6.674;2024-03-17T05:58:51;9.70;;;6.75;;
37905;SDS011;23739;51.448;6.674;2024-03-17T06:01:17;9.13;;;6.07;;
37905;SDS011;23739;51.448;6.674;2024-03-17T06:03:44;11.27;;;6.88;;
37905;SDS011;23739;51.448;6.674;2024-03-17T06:06:10;11.02;;;6.35;;
37905;SDS011;23739;51.448;6.674;2024-03-17T06:08:37;10.68;;;6.93;;
37905;SDS011;23739;51.448;6.674;2024-03-17T06:11:04;14.60;;;7.63;;
37905;SDS011;23739;51.448;6.674;2024-03-17T06:13:30;9.55;;;6.90;;
37905;SDS011;23739;51.448;6.674;2024-03-17T06:15:56;10.60;;;7.38;;
37905;SDS011;23739;51.448;6.674;2024-03-17T06:18:25;10.60;;;6.55;;
37905;SDS011;23739;51.448;6.674;2024-03-17T06:20:52;10.27;;;6.85;;
37905;SDS011;23739;51.448;6.674;2024-03-17T06:23:18;13.45;;;6.75;;
37905;SDS011;23739;51.448;6.674;2024-03-17T06:25:44;10.55;;;6.65;;
37905;SDS011;23739;51.448;6.674;2024-03-17T06:28:11;11.30;;;6.60;;
37905;SDS011;23739;51.448;6.674;2024-03-17T06:30:43;15.15;;;6.82;;
37905;SDS011;23739;51.448;6.674;2024-03-17T06:33:13;13.20;;;8.32;;
37905;SDS011;23739;51.448;6.674;2024-03-17T06:35:39;12.23;;;6.72;;
37905;SDS011;23739;51.448;6.674;2024-03-17T06:38:05;11.38;;;6.75;;
37905;SDS011;23739;51.448;6.674;2024-03-17T06:40:39;7.75;;;5.78;;
37905;SDS011;23739;51.448;6.674;2024-03-17T06:43:05;13.05;;;5.88;;
37905;SDS011;23739;51.448;6.674;2024-03-17T06:45:31;11.52;;;6.30;;
37905;SDS011;23739;51.448;6.674;2024-03-17T06:47:58;8.88;;;5.57;;
37905;SDS011;23739;51.448;6.674;2024-03-17T06:50:24;7.63;;;5.03;;
37905;SDS011;23739;51.448;6.674;2024-03-17T06:52:50;7.35;;;5.22;;
37905;SDS011;23739;51.448;6.674;2024-03-17T06:55:19;7.20;;;5.97;;
37905;SDS011;23739;51.448;6.674;2024-03-17T06:57:49;6.35;;;4.97;;
37905;SDS011;23739;51.448;6.674;2024-03-17T07:00:16;6.57;;;4.65;;
37905;SDS011;23739;51.448;6.674;2024-03-17T07:02:48;7.70;;;5.32;;
37905;SDS011;23739;51.448;6.674;2024-03-17T07:05:15;7.55;;;4.60;;
37905;SDS011;23739;51.448;6.674;2024-03-17T07:07:42;6.43;;;5.07;;
37905;SDS011;23739;51.448;6.674;2024-03-17T07:10:08;6.28;;;5.05;;
37905;SDS011;23739;51.448;6.674;2024-03-17T07:12:34;6.40;;;4.72;;
37905;SDS011;23739;51.448;6.674;2024-03-17T07:15:00;7.57;;;5.10;;
37905;SDS011;23739;51.448;6.674;2024-03-17T07:17:26;5.40;;;4.32;;
37905;SDS011;23739;51.448;6.674;2024-03-17T07:19:52;8.10;;;4.82;;
37905;SDS011;23739;51.448;6.674;2024-03-17T07:22:18;6.28;;;4.43;;
37905;SDS011;23739;51.448;6.674;2024-03-17T07:24:44;6.05;;;4.18;;
37905;SDS011;23739;51.448;6.674;2024-03-17T07:27:10;6.30;;;4.13;;
37905;SDS011;23739;51.448;6.674;2024-03-17T07:29:39;10.50;;;4.22;;
37905;SDS011;23739;51.448;6.674;2024-03-17T07:32:06;7.07;;;5.05;;
37905;SDS011;23739;51.448;6.674;2024-03-17T07:34:32;7.65;;;5.32;;
37905;SDS011;23739;51.448;6.674;2024-03-17T07:37:00;10.10;;;5.35;;
37905;SDS011;23739;51.448;6.674;2024-03-17T07:39:30;6.15;;;4.22;;
37905;SDS011;23739;51.448;6.674;2024-03-17T07:41:59;10.73;;;4.70;;
37905;SDS011;23739;51.448;6.674;2024-03-17T07:44:26;9.80;;;5.53;;
37905;SDS011;23739;51.448;6.674;2024-03-17T07:46:54;9.07;;;5.25;;
37905;SDS011;23739;51.448;6.674;2024-03-17T07:49:20;7.50;;;5.60;;
37905;SDS011;23739;51.448;6.674;2024-03-17T07:51:46;10.65;;;5.40;;
37905;SDS011;23739;51.448;6.674;2024-03-17T07:54:12;11.68;;;5.85;;
37905;SDS011;23739;51.448;6.674;2024-03-17T07:56:39;12.73;;;6.05;;
37905;SDS011;23739;51.448;6.674;2024-03-17T07:59:05;10.38;;;5.75;;
37905;SDS011;23739;51.448;6.674;2024-03-17T08:01:37;11.82;;;5.40;;
37905;SDS011;23739;51.448;6.674;2024-03-17T08:04:03;9.80;;;5.18;;
37905;SDS011;23739;51.448;6.674;2024-03-17T08:06:30;9.80;;;6.15;;
37905;SDS011;23739;51.448;6.674;2024-03-17T08:08:56;8.05;;;6.18;;
37905;SDS011;23739;51.448;6.674;2024-03-17T08:11:22;14.25;;;6.57;;
37905;SDS011;23739;51.448;6.674;2024-03-17T08:13:49;10.60;;;6.00;;
37905;SDS011;23739;51.448;6.674;2024-03-17T08:16:15;11.00;;;6.05;;
37905;SDS011;23739;51.448;6.674;2024-03-17T08:18:42;15.38;;;6.43;;
37905;SDS011;23739;51.448;6.674;2024-03-17T08:21:08;16.58;;;6.90;;
37905;SDS011;23739;51.448;6.674;2024-03-17T08:23:34;19.55;;;7.82;;
37905;SDS011;23739;51.448;6.674;2024-03-17T08:26:08;18.95;;;8.02;;
37905;SDS011;23739;51.448;6.674;2024-03-17T08:28:34;11.63;;;5.85;;
37905;SDS011;23739;51.448;6.674;2024-03-17T08:31:01;9.13;;;4.50;;
37905;SDS011;23739;51.448;6.674;2024-03-17T08:33:28;7.72;;;4.53;;
37905;SDS011;23739;51.448;6.674;2024-03-17T08:36:00;8.50;;;5.03;;
37905;SDS011;23739;51.448;6.674;2024-03-17T08:38:27;6.53;;;4.97;;
37905;SDS011;23739;51.448;6.674;2024-03-17T08:40:56;8.02;;;3.63;;
37905;SDS011;23739;51.448;6.674;2024-03-17T08:43:23;6.78;;;4.22;;
37905;SDS011;23739;51.448;6.674;2024-03-17T08:48:24;3.50;;;3.17;;
37905;SDS011;23739;51.448;6.674;2024-03-17T08:50:51;6.25;;;3.80;;
37905;SDS011;23739;51.448;6.674;2024-03-17T08:53:17;6.03;;;4.18;;
37905;SDS011;23739;51.448;6.674;2024-03-17T08:55:43;8.27;;;4.05;;
37905;SDS011;23739;51.448;6.674;2024-03-17T08:58:09;5.82;;;4.28;;
37905;SDS011;23739;51.448;6.674;2024-03-17T09:00:36;9.00;;;4.55;;
37905;SDS011;23739;51.448;6.674;2024-03-17T09:03:02;7.43;;;5.30;;
37905;SDS011;23739;51.448;6.674;2024-03-17T09:05:28;6.78;;;5.25;;
37905;SDS011;23739;51.448;6.674;2024-03-17T09:07:54;7.47;;;5.28;;
37905;SDS011;23739;51.448;6.674;2024-03-17T09:10:21;10.52;;;6.03;;
37905;SDS011;23739;51.448;6.674;2024-03-17T09:12:47;7.75;;;5.03;;
37905;SDS011;23739;51.448;6.674;2024-03-17T09:15:13;12.77;;;5.95;;
37905;SDS011;23739;51.448;6.674;2024-03-17T09:17:39;8.90;;;6.18;;
37905;SDS011;23739;51.448;6.674;2024-03-17T09:20:06;13.40;;;6.30;;
37905;SDS011;23739;51.448;6.674;2024-03-17T09:22:36;10.60;;;5.35;;
37905;SDS011;23739;51.448;6.674;2024-03-17T09:25:05;7.13;;;4.95;;
37905;SDS011;23739;51.448;6.674;2024-03-17T09:27:32;7.05;;;4.15;;
37905;SDS011;23739;51.448;6.674;2024-03-17T09:29:59;7.32;;;5.28;;
37905;SDS011;23739;51.448;6.674;2024-03-17T09:32:25;6.20;;;3.92;;
37905;SDS011;23739;51.448;6.674;2024-03-17T09:34:51;5.82;;;4.03;;
37905;SDS011;23739;51.448;6.674;2024-03-17T09:37:17;6.80;;;3.97;;
37905;SDS011;23739;51.448;6.674;2024-03-17T09:39:46;8.10;;;4.03;;
37905;SDS011;23739;51.448;6.674;2024-03-17T09:42:19;4.78;;;3.67;;
37905;SDS011;23739;51.448;6.674;2024-03-17T09:47:15;6.57;;;4.10;;
37905;SDS011;23739;51.448;6.674;2024-03-17T09:49:42;6.38;;;3.80;;
37905;SDS011;23739;51.448;6.674;2024-03-17T09:52:09;5.88;;;3.50;;
37905;SDS011;23739;51.448;6.674;2024-03-17T09:54:40;5.72;;;3.70;;
37905;SDS011;23739;51.448;6.674;2024-03-17T09:57:09;4.65;;;3.88;;
37905;SDS011;23739;51.448;6.674;2024-03-17T09:59:41;5.22;;;3.20;;
37905;SDS011;23739;51.448;6.674;2024-03-17T10:02:09;6.18;;;3.85;;
37905;SDS011;23739;51.448;6.674;2024-03-17T10:04:40;5.95;;;3.30;;
37905;SDS011;23739;51.448;6.674;2024-03-17T10:07:06;3.80;;;3.22;;
37905;SDS011;23739;51.448;6.674;2024-03-17T10:09:32;6.40;;;2.78;;
37905;SDS011;23739;51.448;6.674;2024-03-17T10:11:58;4.93;;;2.78;;
37905;SDS011;23739;51.448;6.674;2024-03-17T10:14:24;6.05;;;3.17;;
37905;SDS011;23739;51.448;6.674;2024-03-17T10:16:50;4.85;;;2.70;;
37905;SDS011;23739;51.448;6.674;2024-03-17T10:19:21;5.55;;;2.80;;
37905;SDS011;23739;51.448;6.674;2024-03-17T10:21:48;5.68;;;3.15;;
37905;SDS011;23739;51.448;6.674;2024-03-17T10:24:19;3.53;;;3.17;;
37905;SDS011;23739;51.448;6.674;2024-03-17T10:26:51;3.42;;;2.72;;
37905;SDS011;23739;51.448;6.674;2024-03-17T10:31:43;5.18;;;2.55;;
37905;SDS011;23739;51.448;6.674;2024-03-17T10:34:11;4.82;;;2.80;;
37905;SDS011;23739;51.448;6.674;2024-03-17T10:36:41;3.40;;;2.67;;
37905;SDS011;23739;51.448;6.674;2024-03-17T10:39:24;4.43;;;2.70;;
37905;SDS011;23739;51.448;6.674;2024-03-17T10:41:56;5.55;;;3.08;;
37905;SDS011;23739;51.448;6.674;2024-03-17T10:44:22;3.72;;;3.08;;
37905;SDS011;23739;51.448;6.674;2024-03-17T10:46:48;4.70;;;3.00;;
37905;SDS011;23739;51.448;6.674;2024-03-17T10:49:16;7.82;;;3.38;;
37905;SDS011;23739;51.448;6.674;2024-03-17T10:51:43;12.05;;;3.67;;
37905;SDS011;23739;51.448;6.674;2024-03-17T10:54:15;8.02;;;3.38;;
37905;SDS011;23739;51.448;6.674;2024-03-17T10:56:47;6.10;;;3.63;;
37905;SDS011;23739;51.448;6.674;2024-03-17T10:59:13;4.40;;;2.67;;
37905;SDS011;23739;51.448;6.674;2024-03-17T11:01:40;3.97;;;3.40;;
37905;SDS011;23739;51.448;6.674;2024-03-17T11:04:08;6.38;;;3.20;;
37905;SDS011;23739;51.448;6.674;2024-03-17T11:06:37;8.32;;;4.30;;
37905;SDS011;23739;51.448;6.674;2024-03-17T11:09:03;9.93;;;3.80;;
37905;SDS011;23739;51.448;6.674;2024-03-17T11:11:36;4.10;;;2.88;;
37905;SDS011;23739;51.448;6.674;2024-03-17T11:14:17;4.63;;;2.85;;
37905;SDS011;23739;51.448;6.674;2024-03-17T11:16:44;5.45;;;3.08;;
37905;SDS011;23739;51.448;6.674;2024-03-17T11:19:14;5.93;;;3.10;;
37905;SDS011;23739;51.448;6.674;2024-03-17T11:21:41;6.97;;;3.47;;
37905;SDS011;23739;51.448;6.674;2024-03-17T11:24:07;7.00;;;3.90;;
37905;SDS011;23739;51.448;6.674;2024-03-17T11:26:43;4.53;;;2.75;;
37905;SDS011;23739;51.448;6.674;2024-03-17T11:29:23;6.03;;;2.63;;
37905;SDS011;23739;51.448;6.674;2024-03-17T11:31:51;4.75;;;3.10;;
37905;SDS011;23739;51.448;6.674;2024-03-17T11:36:53;7.40;;;3.33;;
37905;SDS011;23739;51.448;6.674;2024-03-17T11:39:20;5.70;;;3.33;;
37905;SDS011;23739;51.448;6.674;2024-03-17T11:41:50;4.78;;;3.67;;
37905;SDS011;23739;51.448;6.674;2024-03-17T11:51:57;5.25;;;3.60;;
37905;SDS011;23739;51.448;6.674;2024-03-17T11:54:37;5.60;;;3.40;;
37905;SDS011;23739;51.448;6.674;2024-03-17T11:57:08;5.70;;;3.47;;
37905;SDS011;23739;51.448;6.674;2024-03-17T11:59:35;5.80;;;3.47;;
37905;SDS011;23739;51.448;6.674;2024-03-17T12:04:45;6.07;;;4.20;;
37905;SDS011;23739;51.448;6.674;2024-03-17T12:07:18;5.63;;;3.78;;
37905;SDS011;23739;51.448;6.674;2024-03-17T12:09:45;4.93;;;3.20;;
37905;SDS011;23739;51.448;6.674;2024-03-17T12:14:38;5.90;;;3.17;;
37905;SDS011;23739;51.448;6.674;2024-03-17T12:17:06;5.18;;;3.20;;
37905;SDS011;23739;51.448;6.674;2024-03-17T12:19:33;6.18;;;3.97;;
37905;SDS011;23739;51.448;6.674;2024-03-17T12:21:59;5.15;;;3.33;;
37905;SDS011;23739;51.448;6.674;2024-03-17T12:24:29;5.88;;;3.70;;
37905;SDS011;23739;51.448;6.674;2024-03-17T12:26:56;4.25;;;3.30;;
37905;SDS011;23739;51.448;6.674;2024-03-17T12:31:52;4.72;;;3.13;;
37905;SDS011;23739;51.448;6.674;2024-03-17T12:34:19;5.43;;;3.00;;
37905;SDS011;23739;51.448;6.674;2024-03-17T12:36:46;5.35;;;2.92;;
37905;SDS011;23739;51.448;6.674;2024-03-17T12:39:16;5.00;;;3.00;;
37905;SDS011;23739;51.448;6.674;2024-03-17T12:41:44;5.07;;;3.13;;
37905;SDS011;23739;51.448;6.674;2024-03-17T12:44:22;5.50;;;2.67;;
37905;SDS011;23739;51.448;6.674;2024-03-17T12:46:54;6.13;;;2.92;;
37905;SDS011;23739;51.448;6.674;2024-03-17T12:49:21;4.40;;;2.92;;
37905;SDS011;23739;51.448;6.674;2024-03-17T12:51:49;3.70;;;2.60;;
37905;SDS011;23739;51.448;6.674;2024-03-17T12:54:15;6.00;;;2.58;;
37905;SDS011;23739;51.448;6.674;2024-03-17T12:56:45;6.60;;;3.50;;
37905;SDS011;23739;51.448;6.674;2024-03-17T12:59:39;5.85;;;3.67;;
37905;SDS011;23739;51.448;6.674;2024-03-17T13:02:24;8.45;;;3.45;;
37905;SDS011;23739;51.448;6.674;2024-03-17T13:07:48;5.00;;;2.60;;
37905;SDS011;23739;51.448;6.674;2024-03-17T13:10:18;6.32;;;3.40;;
37905;SDS011;23739;51.448;6.674;2024-03-17T13:12:45;6.63;;;4.10;;
37905;SDS011;23739;51.448;6.674;2024-03-17T13:15:13;5.13;;;3.03;;
37905;SDS011;23739;51.448;6.674;2024-03-17T13:17:40;4.28;;;2.50;;
37905;SDS011;23739;51.448;6.674;2024-03-17T13:20:07;6.43;;;3.03;;
37905;SDS011;23739;51.448;6.674;2024-03-17T13:22:36;4.15;;;2.60;;
37905;SDS011;23739;51.448;6.674;2024-03-17T13:25:05;5.95;;;3.10;;
37905;SDS011;23739;51.448;6.674;2024-03-17T13:27:31;3.92;;;3.20;;
37905;SDS011;23739;51.448;6.674;2024-03-17T13:29:57;4.47;;;2.95;;
37905;SDS011;23739;51.448;6.674;2024-03-17T13:32:23;7.35;;;2.90;;
37905;SDS011;23739;51.448;6.674;2024-03-17T13:34:49;8.30;;;4.05;;
37905;SDS011;23739;51.448;6.674;2024-03-17T13:37:16;5.85;;;3.20;;
37905;SDS011;23739;51.448;6.674;2024-03-17T13:39:42;7.72;;;4.05;;
37905;SDS011;23739;51.448;6.674;2024-03-17T13:42:08;4.80;;;3.10;;
37905;SDS011;23739;51.448;6.674;2024-03-17T13:44:35;7.78;;;3.50;;
37905;SDS011;23739;51.448;6.674;2024-03-17T13:47:01;5.40;;;3.33;;
37905;SDS011;23739;51.448;6.674;2024-03-17T13:49:28;5.68;;;3.05;;
37905;SDS011;23739;51.448;6.674;2024-03-17T13:51:54;3.95;;;2.47;;
37905;SDS011;23739;51.448;6.674;2024-03-17T13:54:21;4.30;;;3.05;;
37905;SDS011;23739;51.448;6.674;2024-03-17T13:56:48;8.65;;;3.15;;
37905;SDS011;23739;51.448;6.674;2024-03-17T13:59:14;4.75;;;2.80;;
37905;SDS011;23739;51.448;6.674;2024-03-17T14:01:41;6.25;;;2.67;;
37905;SDS011;23739;51.448;6.674;2024-03-17T14:04:15;5.65;;;2.95;;
37905;SDS011;23739;51.448;6.674;2024-03-17T14:06:42;6.63;;;3.00;;
37905;SDS011;23739;51.448;6.674;2024-03-17T14:09:08;6.95;;;2.97;;
37905;SDS011;23739;51.448;6.674;2024-03-17T14:11:34;6.47;;;2.08;;
37905;SDS011;23739;51.448;6.674;2024-03-17T14:14:01;5.97;;;2.80;;
37905;SDS011;23739;51.448;6.674;2024-03-17T14:16:29;6.15;;;2.80;;
37905;SDS011;23739;51.448;6.674;2024-03-17T14:18:57;5.10;;;3.03;;
37905;SDS011;23739;51.448;6.674;2024-03-17T14:21:23;4.55;;;3.08;;
37905;SDS011;23739;51.448;6.674;2024-03-17T14:23:49;7.63;;;3.58;;
37905;SDS011;23739;51.448;6.674;2024-03-17T14:26:16;4.13;;;2.65;;
37905;SDS011;23739;51.448;6.674;2024-03-17T14:28:42;8.00;;;3.00;;
37905;SDS011;23739;51.448;6.674;2024-03-17T14:31:08;5.50;;;2.90;;
37905;SDS011;23739;51.448;6.674;2024-03-17T14:33:34;5.25;;;2.50;;
37905;SDS011;23739;51.448;6.674;2024-03-17T14:36:00;6.82;;;2.75;;
37905;SDS011;23739;51.448;6.674;2024-03-17T14:38:26;7.90;;;4.03;;
37905;SDS011;23739;51.448;6.674;2024-03-17T14:40:52;4.40;;;2.55;;
37905;SDS011;23739;51.448;6.674;2024-03-17T14:43:19;4.07;;;2.58;;
37905;SDS011;23739;51.448;6.674;2024-03-17T14:45:45;6.85;;;3.60;;
37905;SDS011;23739;51.448;6.674;2024-03-17T14:48:12;7.18;;;3.75;;
37905;SDS011;23739;51.448;6.674;2024-03-17T14:50:41;6.28;;;3.55;;
37905;SDS011;23739;51.448;6.674;2024-03-17T14:53:07;8.45;;;3.67;;
37905;SDS011;23739;51.448;6.674;2024-03-17T14:55:33;3.42;;;3.13;;
37905;SDS011;23739;51.448;6.674;2024-03-17T14:57:59;6.63;;;3.28;;
37905;SDS011;23739;51.448;6.674;2024-03-17T15:00:27;6.40;;;3.25;;
37905;SDS011;23739;51.448;6.674;2024-03-17T15:02:55;4.95;;;3.40;;
37905;SDS011;23739;51.448;6.674;2024-03-17T15:05:22;9.52;;;3.33;;
37905;SDS011;23739;51.448;6.674;2024-03-17T15:07:49;5.93;;;3.63;;
37905;SDS011;23739;51.448;6.674;2024-03-17T15:10:17;8.05;;;3.65;;
37905;SDS011;23739;51.448;6.674;2024-03-17T15:12:46;8.60;;;4.13;;